Time;durP1;ratioP1;P1;durP2;ratioP2;P2;SDS_P1;SDS_P2;PMS_P1;PMS_P2;Temp;Humidity;BMP_temperature;BMP_pressure;BME280_temperature;BME280_humidity;BME280_pressure;Samples;Min_cycle;Max_cycle;Signal;HPM_P1;HPM_P2
2023/01/02 00:02:04;;;;;;;7.07;2.20;;;;;;;;;;6240274;23;20244;-77
2023/01/02 00:04:30;;;;;;;4.00;2.70;;;;;;;;;;6241676;22;20189;-77
2023/01/02 00:06:55;;;;;;;7.13;2.63;;;;;;;;;;6239756;23;20151;-77
2023/01/02 00:09:20;;;;;;;4.93;2.33;;;;;;;;;;6240977;23;20171;-76
2023/01/02 00:11:45;;;;;;;6.20;2.67;;;;;;;;;;6241436;23;20197;-77
2023/01/02 00:14:11;;;;;;;4.20;2.30;;;;;;;;;;6240186;22;20175;-78
2023/01/02 00:16:36;;;;;;;4.83;2.70;;;;;;;;;;6244305;23;20154;-77
2023/01/02 00:19:01;;;;;;;7.40;2.90;;;;;;;;;;6245376;23;20151;-77
2023/01/02 00:21:27;;;;;;;4.80;2.23;;;;;;;;;;6245312;23;20217;-78
2023/01/02 00:23:52;;;;;;;7.80;2.70;;;;;;;;;;6246571;22;20163;-77
2023/01/02 00:26:17;;;;;;;5.90;3.10;;;;;;;;;;6245296;23;20578;-77
2023/01/02 00:28:43;;;;;;;5.70;2.87;;;;;;;;;;6240426;23;20231;-77
2023/01/02 00:31:09;;;;;;;4.07;2.13;;;;;;;;;;6244195;23;20177;-77
2023/01/02 00:33:35;;;;;;;6.47;2.93;;;;;;;;;;6241287;22;20167;-77
2023/01/02 00:36:04;;;;;;;7.37;3.30;;;;;;;;;;6244074;22;20857;-76
2023/01/02 00:38:29;;;;;;;4.47;2.73;;;;;;;;;;6240559;23;20154;-77
2023/01/02 00:40:54;;;;;;;6.77;3.20;;;;;;;;;;6242185;23;20413;-77
2023/01/02 00:43:20;;;;;;;6.20;3.43;;;;;;;;;;6241317;22;20143;-77
2023/01/02 00:45:47;;;;;;;5.57;3.23;;;;;;;;;;6241478;23;20181;-77
2023/01/02 00:48:12;;;;;;;5.80;3.60;;;;;;;;;;6239329;23;20211;-77
2023/01/02 00:50:38;;;;;;;4.00;3.60;;;;;;;;;;6244814;22;20359;-77
2023/01/02 00:53:03;;;;;;;9.63;4.67;;;;;;;;;;6243141;23;20159;-76
2023/01/02 00:55:28;;;;;;;4.20;3.80;;;;;;;;;;6242227;22;20521;-76
2023/01/02 00:57:54;;;;;;;7.33;4.50;;;;;;;;;;6241810;23;20196;-77
2023/01/02 01:00:19;;;;;;;6.40;5.03;;;;;;;;;;6240437;23;20143;-76
2023/01/02 01:02:44;;;;;;;5.10;4.47;;;;;;;;;;6241241;23;20549;-76
2023/01/02 01:05:09;;;;;;;5.57;4.70;;;;;;;;;;6242169;22;20159;-77
2023/01/02 01:07:35;;;;;;;6.23;4.57;;;;;;;;;;6241714;23;20139;-76
2023/01/02 01:10:00;;;;;;;5.40;4.63;;;;;;;;;;6242010;23;20940;-76
2023/01/02 01:12:25;;;;;;;5.90;4.67;;;;;;;;;;6242343;23;20201;-76
2023/01/02 01:14:50;;;;;;;7.07;5.70;;;;;;;;;;6241472;22;20946;-76
2023/01/02 01:17:16;;;;;;;6.57;5.23;;;;;;;;;;6241269;23;20208;-76
2023/01/02 01:19:41;;;;;;;6.33;5.33;;;;;;;;;;6234898;23;20151;-76
2023/01/02 01:22:06;;;;;;;5.83;5.03;;;;;;;;;;6236176;23;20174;-76
2023/01/02 01:24:31;;;;;;;5.63;4.73;;;;;;;;;;6240288;22;20174;-77
2023/01/02 01:26:57;;;;;;;5.43;4.93;;;;;;;;;;6238705;23;20143;-76
2023/01/02 01:29:22;;;;;;;6.63;5.73;;;;;;;;;;6235944;23;20534;-76
2023/01/02 01:31:47;;;;;;;6.93;5.37;;;;;;;;;;6240352;23;20139;-76
2023/01/02 01:34:13;;;;;;;6.50;5.80;;;;;;;;;;6240096;22;20178;-76
2023/01/02 01:36:38;;;;;;;10.43;6.00;;;;;;;;;;6238694;22;20583;-76
2023/01/02 01:39:03;;;;;;;8.83;5.93;;;;;;;;;;6240355;22;20483;-76
2023/01/02 01:41:29;;;;;;;5.87;5.37;;;;;;;;;;6239767;23;20652;-76
2023/01/02 01:43:56;;;;;;;9.43;6.17;;;;;;;;;;6241060;22;20182;-76
2023/01/02 01:46:32;;;;;;;7.07;6.37;;;;;;;;;;6240859;22;20151;-76
2023/01/02 01:49:19;;;;;;;9.30;6.53;;;;;;;;;;6240300;22;20366;-76
2023/01/02 01:51:48;;;;;;;7.87;7.07;;;;;;;;;;6240801;22;20448;-76
2023/01/02 01:54:15;;;;;;;8.67;6.97;;;;;;;;;;6240350;22;20398;-76
2023/01/02 01:56:44;;;;;;;9.47;7.83;;;;;;;;;;6239398;22;20378;-76
2023/01/02 01:59:09;;;;;;;8.90;7.97;;;;;;;;;;6240833;22;20470;-76
2023/01/02 02:01:35;;;;;;;11.43;8.63;;;;;;;;;;6241653;23;20445;-76
2023/01/02 02:04:01;;;;;;;10.60;8.57;;;;;;;;;;6240996;22;20610;-76
2023/01/02 02:06:26;;;;;;;11.77;9.30;;;;;;;;;;6242338;23;20147;-76
2023/01/02 02:09:00;;;;;;;12.13;9.20;;;;;;;;;;6241390;23;20598;-76
2023/01/02 02:11:26;;;;;;;11.83;9.93;;;;;;;;;;6244892;22;20449;-76
2023/01/02 02:13:55;;;;;;;12.93;11.00;;;;;;;;;;6243732;22;20440;-75
2023/01/02 02:16:27;;;;;;;12.40;9.13;;;;;;;;;;6247873;22;20146;-76
2023/01/02 02:19:06;;;;;;;12.67;10.60;;;;;;;;;;6243671;22;20366;-75
2023/01/02 02:21:43;;;;;;;12.13;10.93;;;;;;;;;;6244981;23;20438;-76
2023/01/02 02:24:27;;;;;;;12.03;10.73;;;;;;;;;;6245848;22;20396;-75
2023/01/02 02:27:11;;;;;;;13.70;12.23;;;;;;;;;;6245083;23;20366;-75
2023/01/02 02:29:42;;;;;;;16.57;12.73;;;;;;;;;;6245601;23;20398;-76
2023/01/02 02:32:19;;;;;;;19.10;13.33;;;;;;;;;;6246110;23;20366;-75
2023/01/02 02:34:49;;;;;;;18.20;14.03;;;;;;;;;;6243308;22;20397;-71
2023/01/02 02:37:17;;;;;;;15.83;12.20;;;;;;;;;;6236393;23;20377;-71
2023/01/02 02:40:02;;;;;;;19.03;14.80;;;;;;;;;;6239494;23;20376;-71
2023/01/02 02:42:27;;;;;;;19.43;14.27;;;;;;;;;;6242069;23;20420;-71
2023/01/02 02:44:58;;;;;;;19.83;13.80;;;;;;;;;;6215306;22;20425;-71
2023/01/02 02:47:24;;;;;;;17.70;14.23;;;;;;;;;;6239875;23;20198;-71
2023/01/02 02:49:52;;;;;;;14.87;12.33;;;;;;;;;;6239756;23;20382;-71
2023/01/02 02:52:36;;;;;;;19.23;14.10;;;;;;;;;;6240642;22;20147;-71
2023/01/02 02:55:04;;;;;;;17.70;12.70;;;;;;;;;;6239267;22;20443;-71
2023/01/02 02:57:30;;;;;;;19.70;13.10;;;;;;;;;;6241088;22;20393;-71
2023/01/02 02:59:55;;;;;;;18.10;13.17;;;;;;;;;;6238502;23;20847;-71
2023/01/02 03:02:21;;;;;;;18.63;13.40;;;;;;;;;;6240546;22;20170;-71
2023/01/02 03:04:48;;;;;;;17.50;12.73;;;;;;;;;;6241541;22;20554;-71
2023/01/02 03:07:30;;;;;;;16.50;13.00;;;;;;;;;;6239918;22;20171;-71
2023/01/02 03:10:15;;;;;;;17.70;13.40;;;;;;;;;;6241979;22;20386;-71
2023/01/02 03:12:52;;;;;;;17.73;11.53;;;;;;;;;;6240230;23;20409;-71
2023/01/02 03:15:20;;;;;;;17.60;12.47;;;;;;;;;;6239016;22;20868;-71
2023/01/02 03:17:55;;;;;;;15.70;11.33;;;;;;;;;;6238163;23;20413;-71
2023/01/02 03:20:23;;;;;;;17.90;11.40;;;;;;;;;;6240413;23;20428;-71
2023/01/02 03:22:51;;;;;;;15.07;12.50;;;;;;;;;;6239497;23;20461;-71
2023/01/02 03:25:17;;;;;;;13.40;10.23;;;;;;;;;;6240348;22;20706;-71
2023/01/02 03:27:43;;;;;;;16.10;11.77;;;;;;;;;;6239105;23;20378;-71
2023/01/02 03:30:20;;;;;;;18.23;11.10;;;;;;;;;;6238615;23;20155;-71
2023/01/02 03:32:51;;;;;;;14.27;10.97;;;;;;;;;;6239624;23;20374;-71
2023/01/02 03:35:19;;;;;;;17.87;10.97;;;;;;;;;;6241366;22;20406;-72
2023/01/02 03:37:47;;;;;;;17.80;10.70;;;;;;;;;;6240372;22;20433;-71
2023/01/02 03:40:16;;;;;;;14.47;9.87;;;;;;;;;;6241424;22;20377;-71
2023/01/02 03:42:44;;;;;;;14.20;10.40;;;;;;;;;;6240687;22;20468;-71
2023/01/02 03:45:16;;;;;;;16.00;10.93;;;;;;;;;;6241888;22;20397;-71
2023/01/02 03:47:44;;;;;;;13.37;10.20;;;;;;;;;;6241678;23;20700;-71
2023/01/02 03:50:14;;;;;;;16.97;10.80;;;;;;;;;;6239186;23;20394;-71
2023/01/02 03:52:39;;;;;;;19.93;11.77;;;;;;;;;;6238646;22;20370;-71
2023/01/02 03:55:05;;;;;;;13.53;9.80;;;;;;;;;;6241051;22;20390;-71
2023/01/02 03:57:39;;;;;;;13.13;10.00;;;;;;;;;;6241212;22;20144;-71
2023/01/02 04:00:10;;;;;;;16.33;10.13;;;;;;;;;;6241692;22;20261;-71
2023/01/02 04:03:05;;;;;;;16.73;11.50;;;;;;;;;;6239853;22;20402;-71
2023/01/02 04:05:44;;;;;;;13.83;10.37;;;;;;;;;;6227384;22;20869;-71
2023/01/02 04:08:20;;;;;;;12.33;10.20;;;;;;;;;;6240105;22;20377;-71
2023/01/02 04:10:47;;;;;;;16.93;10.40;;;;;;;;;;6239889;23;20378;-71
2023/01/02 04:13:18;;;;;;;15.33;10.63;;;;;;;;;;6240706;22;20373;-71
2023/01/02 04:15:44;;;;;;;15.83;9.77;;;;;;;;;;6241343;22;20390;-71
2023/01/02 04:18:21;;;;;;;14.50;8.47;;;;;;;;;;6241311;22;21185;-72
2023/01/02 04:20:48;;;;;;;12.90;9.60;;;;;;;;;;6240628;22;20353;-71
2023/01/02 04:23:34;;;;;;;17.00;10.50;;;;;;;;;;6238712;23;20382;-71
2023/01/02 04:26:02;;;;;;;20.37;10.40;;;;;;;;;;6229766;22;20433;-71
2023/01/02 04:28:28;;;;;;;21.37;10.60;;;;;;;;;;6240330;23;20373;-71
2023/01/02 04:30:58;;;;;;;16.03;10.90;;;;;;;;;;6238964;22;20366;-72
2023/01/02 04:33:24;;;;;;;13.70;9.57;;;;;;;;;;6241276;22;20831;-71
2023/01/02 04:35:49;;;;;;;15.77;10.00;;;;;;;;;;6240544;22;20426;-71
2023/01/02 04:38:15;;;;;;;13.37;9.50;;;;;;;;;;6240774;23;20153;-71
2023/01/02 04:40:40;;;;;;;12.93;9.30;;;;;;;;;;6239534;23;20151;-71
2023/01/02 04:43:32;;;;;;;16.63;9.60;;;;;;;;;;6240435;22;20193;-71
2023/01/02 04:45:57;;;;;;;15.17;10.27;;;;;;;;;;6257757;22;20217;-71
2023/01/02 04:48:22;;;;;;;16.70;10.00;;;;;;;;;;6238834;23;20366;-71
2023/01/02 04:50:47;;;;;;;14.83;8.10;;;;;;;;;;6238968;23;20146;-71
2023/01/02 04:53:13;;;;;;;9.80;8.40;;;;;;;;;;6238750;22;20147;-71
2023/01/02 04:55:38;;;;;;;12.07;8.10;;;;;;;;;;6237229;22;20167;-71
2023/01/02 04:58:04;;;;;;;10.43;8.73;;;;;;;;;;6237572;23;20150;-71
2023/01/02 05:00:29;;;;;;;13.70;9.37;;;;;;;;;;6238035;23;20154;-71
2023/01/02 05:02:54;;;;;;;10.97;8.80;;;;;;;;;;6241133;22;20167;-71
2023/01/02 05:05:19;;;;;;;10.77;8.60;;;;;;;;;;6241500;22;20683;-71
2023/01/02 05:07:45;;;;;;;10.80;8.20;;;;;;;;;;6237392;23;20250;-71
2023/01/02 05:10:10;;;;;;;10.50;7.30;;;;;;;;;;6241366;23;20197;-71
2023/01/02 05:12:36;;;;;;;10.50;7.53;;;;;;;;;;6239732;23;20154;-72
2023/01/02 05:15:02;;;;;;;9.30;7.27;;;;;;;;;;6240222;22;20167;-71
2023/01/02 05:17:27;;;;;;;11.17;7.53;;;;;;;;;;6241796;22;20638;-72
2023/01/02 05:19:53;;;;;;;11.97;7.97;;;;;;;;;;6239172;22;20848;-72
2023/01/02 05:25:02;;;;;;;10.70;8.07;;;;;;;;;;6241488;22;20181;-71
2023/01/02 05:27:27;;;;;;;12.47;8.87;;;;;;;;;;6240673;22;20702;-71
2023/01/02 05:29:52;;;;;;;13.93;9.20;;;;;;;;;;6241706;23;20143;-71
2023/01/02 05:32:17;;;;;;;9.03;7.77;;;;;;;;;;6238217;23;20209;-71
2023/01/02 05:34:43;;;;;;;11.93;8.00;;;;;;;;;;6238265;22;20566;-71
2023/01/02 05:37:08;;;;;;;9.27;8.20;;;;;;;;;;6240944;23;20238;-72
2023/01/02 05:39:33;;;;;;;14.83;8.73;;;;;;;;;;6238723;23;20495;-71
2023/01/02 05:41:59;;;;;;;8.77;7.80;;;;;;;;;;6241118;23;20205;-71
2023/01/02 05:44:24;;;;;;;10.33;8.27;;;;;;;;;;6241958;23;20257;-72
2023/01/02 05:46:49;;;;;;;11.10;7.90;;;;;;;;;;6242031;22;20164;-71
2023/01/02 05:49:14;;;;;;;14.17;8.67;;;;;;;;;;6242354;23;20616;-71
2023/01/02 05:51:40;;;;;;;11.60;8.10;;;;;;;;;;6242812;23;20155;-71
2023/01/02 05:54:05;;;;;;;9.87;7.90;;;;;;;;;;6241913;23;20222;-72
2023/01/02 05:56:30;;;;;;;9.43;7.67;;;;;;;;;;6240570;22;20175;-71
2023/01/02 05:58:56;;;;;;;12.53;8.30;;;;;;;;;;6241169;23;20158;-72
2023/01/02 06:01:23;;;;;;;9.17;7.67;;;;;;;;;;6242244;22;20213;-72
2023/01/02 06:03:50;;;;;;;11.37;7.67;;;;;;;;;;6239409;23;20147;-72
2023/01/02 06:06:16;;;;;;;9.03;7.80;;;;;;;;;;6240270;22;20378;-72
2023/01/02 06:08:41;;;;;;;9.10;7.33;;;;;;;;;;6240313;22;20386;-71
2023/01/02 06:11:07;;;;;;;15.93;7.87;;;;;;;;;;6239430;23;20389;-71
2023/01/02 06:13:33;;;;;;;13.70;7.20;;;;;;;;;;6240064;23;20661;-71
2023/01/02 06:15:59;;;;;;;10.70;7.10;;;;;;;;;;6240978;22;20179;-71
2023/01/02 06:18:25;;;;;;;12.23;7.20;;;;;;;;;;6242453;22;20829;-71
2023/01/02 06:20:50;;;;;;;9.63;7.23;;;;;;;;;;6240132;23;20147;-71
2023/01/02 06:23:15;;;;;;;10.33;7.60;;;;;;;;;;6239323;23;20155;-72
2023/01/02 06:25:40;;;;;;;10.10;7.40;;;;;;;;;;6239845;22;20207;-71
2023/01/02 06:28:06;;;;;;;11.83;6.57;;;;;;;;;;6239376;22;20150;-71
2023/01/02 06:30:31;;;;;;;11.80;7.80;;;;;;;;;;6241665;22;20146;-71
2023/01/02 06:32:57;;;;;;;11.17;7.77;;;;;;;;;;6239263;23;20151;-71
2023/01/02 06:35:22;;;;;;;9.63;7.63;;;;;;;;;;6239753;22;20190;-72
2023/01/02 06:37:48;;;;;;;18.37;7.50;;;;;;;;;;6242361;22;20148;-72
2023/01/02 06:40:13;;;;;;;10.70;6.60;;;;;;;;;;6240833;22;20155;-71
2023/01/02 06:42:38;;;;;;;10.70;7.03;;;;;;;;;;6239620;22;20601;-71
2023/01/02 06:45:04;;;;;;;8.70;7.70;;;;;;;;;;6237989;22;20495;-71
2023/01/02 06:47:29;;;;;;;10.47;6.80;;;;;;;;;;6241226;22;20199;-71
2023/01/02 06:49:54;;;;;;;11.80;7.80;;;;;;;;;;6241477;22;20526;-71
2023/01/02 06:52:20;;;;;;;9.10;6.83;;;;;;;;;;6240615;23;20174;-71
2023/01/02 06:54:45;;;;;;;9.30;6.83;;;;;;;;;;6240242;22;20159;-71
2023/01/02 06:57:10;;;;;;;9.30;7.30;;;;;;;;;;6240737;23;20190;-72
2023/01/02 06:59:36;;;;;;;7.90;5.53;;;;;;;;;;6240860;23;20147;-71
2023/01/02 07:02:01;;;;;;;10.33;7.30;;;;;;;;;;6240589;23;20218;-72
2023/01/02 07:04:26;;;;;;;10.33;6.87;;;;;;;;;;6240300;23;20487;-71
2023/01/02 07:06:51;;;;;;;10.20;7.57;;;;;;;;;;6239823;22;20249;-72
2023/01/02 07:09:17;;;;;;;8.37;6.80;;;;;;;;;;6241491;22;20150;-72
2023/01/02 07:11:42;;;;;;;7.97;6.73;;;;;;;;;;6241507;22;20151;-72
2023/01/02 07:14:07;;;;;;;9.17;6.93;;;;;;;;;;6241159;22;20585;-72
2023/01/02 07:16:32;;;;;;;7.07;6.37;;;;;;;;;;6241766;22;20728;-72
2023/01/02 07:18:58;;;;;;;7.20;6.20;;;;;;;;;;6239037;23;20155;-71
2023/01/02 07:21:23;;;;;;;7.60;6.00;;;;;;;;;;6236793;23;20198;-72
2023/01/02 07:23:48;;;;;;;8.80;7.17;;;;;;;;;;6240487;23;20425;-71
2023/01/02 07:26:14;;;;;;;7.43;6.03;;;;;;;;;;6241541;22;20167;-71
2023/01/02 07:28:40;;;;;;;6.17;5.50;;;;;;;;;;6235442;23;20151;-71
2023/01/02 07:31:15;;;;;;;4.30;3.90;;;;;;;;;;6238095;23;20155;-71
2023/01/02 07:33:41;;;;;;;5.50;3.50;;;;;;;;;;6241748;22;20214;-71
2023/01/02 07:36:07;;;;;;;3.10;2.57;;;;;;;;;;6239751;22;20464;-71
2023/01/02 07:38:33;;;;;;;2.37;2.03;;;;;;;;;;6237527;23;20158;-72
2023/01/02 07:40:58;;;;;;;2.83;2.63;;;;;;;;;;6239256;23;20382;-72
2023/01/02 07:43:24;;;;;;;2.67;2.20;;;;;;;;;;6240980;22;20143;-71
2023/01/02 07:45:49;;;;;;;4.80;3.00;;;;;;;;;;6239623;22;20175;-71
2023/01/02 07:48:14;;;;;;;3.10;2.80;;;;;;;;;;6240734;22;20148;-71
2023/01/02 07:50:40;;;;;;;3.40;3.10;;;;;;;;;;6237727;23;20148;-71
2023/01/02 07:53:05;;;;;;;2.53;2.33;;;;;;;;;;6240970;22;20143;-71
2023/01/02 07:55:30;;;;;;;2.43;2.23;;;;;;;;;;6240133;22;20174;-70
2023/01/02 07:57:56;;;;;;;3.60;2.90;;;;;;;;;;6240098;23;20644;-70
2023/01/02 08:00:21;;;;;;;3.87;2.93;;;;;;;;;;6239784;23;20151;-70
2023/01/02 08:02:48;;;;;;;3.07;2.80;;;;;;;;;;6241372;23;20171;-70
2023/01/02 08:05:14;;;;;;;2.57;2.00;;;;;;;;;;6238944;22;20570;-70
2023/01/02 08:07:40;;;;;;;3.50;2.97;;;;;;;;;;6235182;22;20401;-70
2023/01/02 08:10:05;;;;;;;3.07;2.30;;;;;;;;;;6236738;23;20465;-70
2023/01/02 08:12:30;;;;;;;4.20;2.73;;;;;;;;;;6238206;23;20605;-70
2023/01/02 08:14:55;;;;;;;3.13;2.50;;;;;;;;;;6239464;22;20416;-70
2023/01/02 08:17:21;;;;;;;3.17;2.53;;;;;;;;;;6239043;23;20222;-70
2023/01/02 08:19:46;;;;;;;3.37;2.40;;;;;;;;;;6240652;23;20147;-70
2023/01/02 08:22:11;;;;;;;3.57;2.70;;;;;;;;;;6237060;23;20667;-70
2023/01/02 08:24:36;;;;;;;2.80;2.13;;;;;;;;;;6236945;22;20143;-71
2023/01/02 08:27:02;;;;;;;2.50;2.30;;;;;;;;;;6239595;23;20222;-70
2023/01/02 08:29:27;;;;;;;3.77;2.50;;;;;;;;;;6238193;23;20582;-70
2023/01/02 08:31:52;;;;;;;3.17;2.30;;;;;;;;;;6240784;23;20586;-71
2023/01/02 08:34:17;;;;;;;2.93;2.33;;;;;;;;;;6238951;23;20154;-71
2023/01/02 08:36:43;;;;;;;3.83;2.30;;;;;;;;;;6240242;22;20257;-70
2023/01/02 08:39:08;;;;;;;4.80;2.60;;;;;;;;;;6239641;22;20154;-70
2023/01/02 08:41:37;;;;;;;5.40;2.50;;;;;;;;;;6240636;22;20506;-70
2023/01/02 08:44:03;;;;;;;3.40;2.73;;;;;;;;;;6238888;22;20186;-70
2023/01/02 08:46:30;;;;;;;4.60;2.23;;;;;;;;;;6237788;22;20397;-70
2023/01/02 08:48:55;;;;;;;2.97;2.27;;;;;;;;;;6239504;22;20366;-70
2023/01/02 08:51:21;;;;;;;4.40;2.90;;;;;;;;;;6235939;22;20950;-70
2023/01/02 08:53:46;;;;;;;7.93;2.87;;;;;;;;;;6239759;23;20183;-71
2023/01/02 08:56:17;;;;;;;4.30;2.17;;;;;;;;;;6239098;22;20692;-70
2023/01/02 08:58:42;;;;;;;5.00;2.90;;;;;;;;;;6239760;23;20242;-71
2023/01/02 09:01:08;;;;;;;2.57;2.20;;;;;;;;;;6236949;23;20489;-71
2023/01/02 09:03:33;;;;;;;6.27;3.20;;;;;;;;;;6239205;23;20147;-71
2023/01/02 09:05:58;;;;;;;3.70;2.80;;;;;;;;;;6240031;22;20668;-70
2023/01/02 09:08:23;;;;;;;4.77;2.20;;;;;;;;;;6240742;23;20144;-71
2023/01/02 09:10:49;;;;;;;5.03;2.90;;;;;;;;;;6240465;23;20249;-71
2023/01/02 09:13:14;;;;;;;3.70;1.90;;;;;;;;;;6240849;23;20206;-71
2023/01/02 09:15:43;;;;;;;6.53;1.30;;;;;;;;;;6241602;22;20498;-71
2023/01/02 09:18:08;;;;;;;3.60;1.50;;;;;;;;;;6240877;22;20148;-70
2023/01/02 09:20:38;;;;;;;2.70;1.30;;;;;;;;;;6241474;23;20843;-70
2023/01/02 09:23:03;;;;;;;3.03;1.10;;;;;;;;;;6240875;22;20193;-71
2023/01/02 09:25:28;;;;;;;2.53;0.93;;;;;;;;;;6241041;22;20393;-71
2023/01/02 09:27:53;;;;;;;2.80;0.90;;;;;;;;;;6241893;23;20577;-71
2023/01/02 09:30:19;;;;;;;3.30;1.00;;;;;;;;;;6240469;23;20151;-71
2023/01/02 09:32:44;;;;;;;3.07;1.10;;;;;;;;;;6242061;22;20578;-71
2023/01/02 09:35:10;;;;;;;3.33;1.30;;;;;;;;;;6239454;22;20262;-71
2023/01/02 09:37:35;;;;;;;3.10;1.37;;;;;;;;;;6240617;23;20586;-70
2023/01/02 09:40:00;;;;;;;2.20;1.07;;;;;;;;;;6240847;23;20151;-70
2023/01/02 09:42:25;;;;;;;3.83;1.40;;;;;;;;;;6241714;23;20815;-70
2023/01/02 09:44:52;;;;;;;3.00;1.50;;;;;;;;;;6239346;22;20188;-70
2023/01/02 09:47:24;;;;;;;4.50;1.43;;;;;;;;;;6240282;23;20222;-70
2023/01/02 09:49:54;;;;;;;3.97;2.57;;;;;;;;;;6241337;22;20449;-70
2023/01/02 09:52:19;;;;;;;5.93;3.37;;;;;;;;;;6239932;22;20437;-70
2023/01/02 09:54:44;;;;;;;7.73;3.63;;;;;;;;;;6240322;22;20451;-70
2023/01/02 09:57:19;;;;;;;6.40;3.13;;;;;;;;;;6240379;23;20151;-70
2023/01/02 09:59:49;;;;;;;7.63;2.90;;;;;;;;;;6239863;23;20150;-70
2023/01/02 10:02:14;;;;;;;6.23;2.77;;;;;;;;;;6241862;22;20509;-70
2023/01/02 10:04:48;;;;;;;5.17;1.83;;;;;;;;;;6240590;22;20402;-70
2023/01/02 10:07:24;;;;;;;3.50;1.33;;;;;;;;;;6238478;23;20151;-70
2023/01/02 10:10:02;;;;;;;4.77;1.43;;;;;;;;;;6242375;22;20416;-70
2023/01/02 10:12:33;;;;;;;3.67;1.20;;;;;;;;;;6241238;23;20377;-70
2023/01/02 10:15:00;;;;;;;6.67;1.53;;;;;;;;;;6242421;22;20421;-70
2023/01/02 10:17:27;;;;;;;3.00;1.07;;;;;;;;;;6240985;22;20367;-70
2023/01/02 10:20:05;;;;;;;4.03;1.37;;;;;;;;;;6237679;23;20374;-70
2023/01/02 10:22:31;;;;;;;2.33;1.07;;;;;;;;;;6239246;22;20463;-70
2023/01/02 10:25:00;;;;;;;4.30;1.00;;;;;;;;;;6241844;22;20386;-70
2023/01/02 10:27:28;;;;;;;5.23;1.30;;;;;;;;;;6240963;22;20148;-71
2023/01/02 10:30:12;;;;;;;5.77;1.30;;;;;;;;;;6241804;22;20449;-71
2023/01/02 10:32:41;;;;;;;3.03;0.90;;;;;;;;;;6241559;23;20419;-71
2023/01/02 10:35:06;;;;;;;3.40;1.13;;;;;;;;;;6240062;22;20746;-70
2023/01/02 10:37:32;;;;;;;2.57;1.00;;;;;;;;;;6239217;23;20350;-70
2023/01/02 10:39:58;;;;;;;3.80;1.10;;;;;;;;;;6240024;22;20586;-71
2023/01/02 10:42:23;;;;;;;2.40;1.20;;;;;;;;;;6241158;22;20851;-70
2023/01/02 10:44:49;;;;;;;4.30;1.07;;;;;;;;;;6241106;22;20147;-70
2023/01/02 10:47:33;;;;;;;3.60;1.03;;;;;;;;;;6239951;23;20148;-70
2023/01/02 10:49:59;;;;;;;6.93;1.90;;;;;;;;;;6241419;23;20197;-71
2023/01/02 10:52:44;;;;;;;2.00;1.10;;;;;;;;;;6241128;22;20374;-71
2023/01/02 10:55:10;;;;;;;4.33;0.90;;;;;;;;;;6264971;22;20513;-70
2023/01/02 10:57:41;;;;;;;4.30;1.10;;;;;;;;;;6239816;23;20824;-70
2023/01/02 11:00:23;;;;;;;3.07;0.90;;;;;;;;;;6240442;23;20221;-70
2023/01/02 11:02:49;;;;;;;4.53;1.27;;;;;;;;;;6240971;22;20406;-70
2023/01/02 11:05:18;;;;;;;3.20;1.10;;;;;;;;;;6241266;22;20458;-70
2023/01/02 11:07:46;;;;;;;3.87;1.70;;;;;;;;;;6240167;22;20821;-70
2023/01/02 11:10:21;;;;;;;3.30;1.70;;;;;;;;;;6242087;22;20363;-70
2023/01/02 11:12:46;;;;;;;2.50;1.70;;;;;;;;;;6240564;22;20351;-70
2023/01/02 11:15:12;;;;;;;5.27;1.70;;;;;;;;;;6236486;22;20409;-70
2023/01/02 11:17:42;;;;;;;2.73;1.40;;;;;;;;;;6237093;22;20158;-71
2023/01/02 11:20:19;;;;;;;2.80;1.63;;;;;;;;;;6238768;23;20178;-71
2023/01/02 11:22:45;;;;;;;3.23;1.50;;;;;;;;;;6240542;22;20489;-71
2023/01/02 11:25:17;;;;;;;3.23;1.93;;;;;;;;;;6240712;22;20413;-70
2023/01/02 11:27:43;;;;;;;3.73;1.70;;;;;;;;;;6238646;23;20494;-71
2023/01/02 11:30:27;;;;;;;5.73;1.80;;;;;;;;;;6241321;22;20362;-70
2023/01/02 11:33:18;;;;;;;3.60;2.00;;;;;;;;;;6241808;22;20638;-71
2023/01/02 11:35:51;;;;;;;2.27;1.80;;;;;;;;;;6238253;22;20422;-70
2023/01/02 11:38:18;;;;;;;4.77;1.67;;;;;;;;;;6238467;23;20383;-71
2023/01/02 11:41:10;;;;;;;2.60;1.77;;;;;;;;;;6236463;23;20707;-70
2023/01/02 11:43:50;;;;;;;3.33;1.50;;;;;;;;;;6213644;22;20875;-71
2023/01/02 11:46:20;;;;;;;3.53;1.40;;;;;;;;;;6237262;22;20394;-70
2023/01/02 11:48:46;;;;;;;2.73;1.60;;;;;;;;;;6237079;23;20398;-70
2023/01/02 11:51:15;;;;;;;4.83;1.80;;;;;;;;;;6236442;22;20658;-71
2023/01/02 11:53:42;;;;;;;2.03;1.53;;;;;;;;;;6235577;23;20155;-71
2023/01/02 11:56:16;;;;;;;3.40;1.30;;;;;;;;;;6237928;22;20386;-70
2023/01/02 11:58:46;;;;;;;2.00;1.10;;;;;;;;;;6236507;23;20717;-70
2023/01/02 12:01:23;;;;;;;2.77;1.30;;;;;;;;;;6239164;22;20402;-70
2023/01/02 12:03:49;;;;;;;3.60;1.20;;;;;;;;;;6237563;23;20715;-70
2023/01/02 12:06:18;;;;;;;3.53;1.10;;;;;;;;;;6239131;22;20422;-71
2023/01/02 12:08:50;;;;;;;2.50;1.00;;;;;;;;;;6238754;23;20143;-71
2023/01/02 12:11:15;;;;;;;2.73;1.30;;;;;;;;;;6238372;23;20882;-71
2023/01/02 12:13:49;;;;;;;2.37;1.30;;;;;;;;;;6238147;23;20895;-71
2023/01/02 12:16:33;;;;;;;4.60;1.80;;;;;;;;;;6241076;22;20213;-71
2023/01/02 12:19:17;;;;;;;2.93;1.60;;;;;;;;;;6238569;23;20465;-71
2023/01/02 12:21:51;;;;;;;4.43;1.20;;;;;;;;;;6240033;23;20493;-71
2023/01/02 12:24:29;;;;;;;4.40;1.80;;;;;;;;;;6240793;22;20342;-70
2023/01/02 12:27:14;;;;;;;3.80;1.40;;;;;;;;;;6239258;22;20382;-71
2023/01/02 12:29:58;;;;;;;5.23;1.30;;;;;;;;;;6193303;22;20421;-71
2023/01/02 12:32:37;;;;;;;4.60;1.10;;;;;;;;;;6240157;23;20439;-71
2023/01/02 12:35:14;;;;;;;2.97;1.10;;;;;;;;;;6238326;22;20880;-71
2023/01/02 12:37:54;;;;;;;3.00;1.50;;;;;;;;;;6236239;23;20378;-71
2023/01/02 12:40:19;;;;;;;4.07;1.30;;;;;;;;;;6240957;22;20362;-71
2023/01/02 12:43:03;;;;;;;3.57;1.60;;;;;;;;;;6238461;23;20414;-71
2023/01/02 12:45:33;;;;;;;2.50;1.37;;;;;;;;;;6236255;22;20221;-71
2023/01/02 12:48:13;;;;;;;4.13;1.20;;;;;;;;;;6241220;22;20367;-71
2023/01/02 12:50:41;;;;;;;6.60;1.67;;;;;;;;;;6238705;23;20362;-71
2023/01/02 12:53:06;;;;;;;6.13;2.00;;;;;;;;;;6241293;23;20374;-71
2023/01/02 12:55:51;;;;;;;4.60;1.53;;;;;;;;;;6235255;22;20413;-71
2023/01/02 12:58:35;;;;;;;5.50;1.53;;;;;;;;;;6238851;23;20229;-71
2023/01/02 13:01:04;;;;;;;3.63;1.37;;;;;;;;;;6239736;23;20366;-71
2023/01/02 13:03:48;;;;;;;2.97;1.20;;;;;;;;;;6238731;22;20396;-71
2023/01/02 13:06:13;;;;;;;4.33;1.47;;;;;;;;;;6237881;22;20393;-71
2023/01/02 13:08:48;;;;;;;5.37;1.60;;;;;;;;;;6238432;23;20370;-71
2023/01/02 13:11:16;;;;;;;6.17;1.63;;;;;;;;;;6239320;23;20161;-71
2023/01/02 13:13:42;;;;;;;5.37;1.77;;;;;;;;;;6239961;22;20373;-71
2023/01/02 13:16:11;;;;;;;3.73;1.33;;;;;;;;;;6240069;22;20389;-71
2023/01/02 13:18:39;;;;;;;3.83;1.00;;;;;;;;;;6238781;22;20201;-71
2023/01/02 13:21:08;;;;;;;4.93;1.33;;;;;;;;;;6234453;23;20377;-71
2023/01/02 13:23:53;;;;;;;7.33;1.57;;;;;;;;;;6236280;22;20358;-72
2023/01/02 13:26:20;;;;;;;6.53;1.70;;;;;;;;;;6236436;22;20477;-71
2023/01/02 13:28:51;;;;;;;10.37;2.00;;;;;;;;;;6236571;23;20385;-71
2023/01/02 13:31:17;;;;;;;8.00;2.30;;;;;;;;;;6240019;23;20895;-71
2023/01/02 13:33:52;;;;;;;7.63;1.77;;;;;;;;;;6237326;23;20362;-71
2023/01/02 13:36:25;;;;;;;7.43;1.57;;;;;;;;;;6238256;22;20183;-72
2023/01/02 13:39:02;;;;;;;7.43;1.60;;;;;;;;;;6238889;23;20382;-72
2023/01/02 13:41:29;;;;;;;6.90;1.77;;;;;;;;;;6240251;22;20409;-71
2023/01/02 13:43:57;;;;;;;9.13;1.67;;;;;;;;;;6238039;22;20391;-71
2023/01/02 13:46:25;;;;;;;7.80;1.90;;;;;;;;;;6238917;22;20744;-71
2023/01/02 13:48:52;;;;;;;5.60;1.47;;;;;;;;;;6239277;22;20358;-72
2023/01/02 13:51:34;;;;;;;7.63;1.53;;;;;;;;;;6238982;22;20852;-72
2023/01/02 13:54:07;;;;;;;10.73;2.50;;;;;;;;;;6238088;23;21003;-72
2023/01/02 13:56:32;;;;;;;9.70;2.00;;;;;;;;;;6236302;22;20397;-71
2023/01/02 13:59:20;;;;;;;10.23;2.67;;;;;;;;;;6241423;23;20362;-72
2023/01/02 14:01:57;;;;;;;6.83;2.30;;;;;;;;;;6240597;23;20709;-71
2023/01/02 14:04:27;;;;;;;5.83;1.70;;;;;;;;;;6242372;23;20370;-71
2023/01/02 14:06:52;;;;;;;8.83;2.03;;;;;;;;;;6241846;22;20926;-71
2023/01/02 14:09:19;;;;;;;7.53;1.60;;;;;;;;;;6242290;22;20358;-72
2023/01/02 14:11:47;;;;;;;10.40;2.57;;;;;;;;;;6240999;23;20158;-71
2023/01/02 14:14:21;;;;;;;9.80;1.90;;;;;;;;;;6241743;23;20394;-71
2023/01/02 14:17:05;;;;;;;8.33;2.43;;;;;;;;;;6240568;22;20397;-71
2023/01/02 14:19:30;;;;;;;10.80;2.13;;;;;;;;;;6240613;23;20409;-71
2023/01/02 14:21:59;;;;;;;11.40;2.47;;;;;;;;;;6241178;22;20772;-71
2023/01/02 14:24:27;;;;;;;10.17;2.70;;;;;;;;;;6242063;23;20150;-71
2023/01/02 14:27:03;;;;;;;10.73;2.70;;;;;;;;;;6241839;22;20769;-71
2023/01/02 14:29:29;;;;;;;7.23;2.07;;;;;;;;;;6239862;23;20453;-71
2023/01/02 14:31:58;;;;;;;12.20;2.80;;;;;;;;;;6239529;22;20871;-71
2023/01/02 14:34:24;;;;;;;10.33;2.40;;;;;;;;;;6241735;22;20366;-71
2023/01/02 14:36:51;;;;;;;10.70;2.47;;;;;;;;;;6240429;22;20811;-72
2023/01/02 14:39:22;;;;;;;8.50;2.50;;;;;;;;;;6241758;22;20370;-71
2023/01/02 14:44:52;;;;;;;8.40;2.80;;;;;;;;;;6241946;22;20350;-71
2023/01/02 14:47:21;;;;;;;10.40;2.30;;;;;;;;;;6240314;23;20461;-71
2023/01/02 14:49:52;;;;;;;9.23;2.90;;;;;;;;;;6242326;22;20433;-71
2023/01/02 14:52:26;;;;;;;10.20;2.30;;;;;;;;;;6239011;22;20852;-71